sensor_id;sensor_type;location;lat;lon;timestamp;P1;durP1;ratioP1;P2;durP2;ratioP2
81298;SDS011;70766;53.170;18.160;2023-06-26T00:02:00;7.00;;;3.90;;
81298;SDS011;70766;53.170;18.160;2023-06-26T00:04:29;8.40;;;4.00;;
81298;SDS011;70766;53.170;18.160;2023-06-26T00:06:57;6.60;;;3.80;;
81298;SDS011;70766;53.170;18.160;2023-06-26T00:09:25;8.60;;;4.30;;
81298;SDS011;70766;53.170;18.160;2023-06-26T00:11:53;8.80;;;3.70;;
81298;SDS011;70766;53.170;18.160;2023-06-26T00:14:21;6.80;;;3.90;;
81298;SDS011;70766;53.170;18.160;2023-06-26T00:16:49;7.40;;;3.70;;
81298;SDS011;70766;53.170;18.160;2023-06-26T00:19:18;7.10;;;4.20;;
81298;SDS011;70766;53.170;18.160;2023-06-26T00:21:47;9.20;;;4.50;;
81298;SDS011;70766;53.170;18.160;2023-06-26T00:24:16;7.00;;;3.80;;
81298;SDS011;70766;53.170;18.160;2023-06-26T00:26:46;11.10;;;4.60;;
81298;SDS011;70766;53.170;18.160;2023-06-26T00:29:15;7.20;;;4.20;;
81298;SDS011;70766;53.170;18.160;2023-06-26T00:31:44;8.30;;;4.00;;
81298;SDS011;70766;53.170;18.160;2023-06-26T00:34:12;6.40;;;4.00;;
81298;SDS011;70766;53.170;18.160;2023-06-26T00:36:40;6.90;;;3.90;;
81298;SDS011;70766;53.170;18.160;2023-06-26T00:39:11;7.70;;;3.80;;
81298;SDS011;70766;53.170;18.160;2023-06-26T00:41:39;7.00;;;3.50;;
81298;SDS011;70766;53.170;18.160;2023-06-26T00:44:07;7.20;;;4.00;;
81298;SDS011;70766;53.170;18.160;2023-06-26T00:46:35;9.60;;;4.40;;
81298;SDS011;70766;53.170;18.160;2023-06-26T00:49:03;9.90;;;4.40;;
81298;SDS011;70766;53.170;18.160;2023-06-26T00:51:32;6.30;;;3.30;;
81298;SDS011;70766;53.170;18.160;2023-06-26T00:54:01;8.90;;;4.60;;
81298;SDS011;70766;53.170;18.160;2023-06-26T00:56:30;7.30;;;4.50;;
81298;SDS011;70766;53.170;18.160;2023-06-26T00:58:59;6.70;;;4.20;;
81298;SDS011;70766;53.170;18.160;2023-06-26T01:01:27;8.60;;;4.40;;
81298;SDS011;70766;53.170;18.160;2023-06-26T01:03:55;6.80;;;4.10;;
81298;SDS011;70766;53.170;18.160;2023-06-26T01:06:25;7.50;;;4.40;;
81298;SDS011;70766;53.170;18.160;2023-06-26T01:08:59;8.20;;;4.70;;
81298;SDS011;70766;53.170;18.160;2023-06-26T01:11:28;7.30;;;4.40;;
81298;SDS011;70766;53.170;18.160;2023-06-26T01:13:58;6.60;;;4.30;;
81298;SDS011;70766;53.170;18.160;2023-06-26T01:16:29;7.60;;;4.30;;
81298;SDS011;70766;53.170;18.160;2023-06-26T01:18:58;9.90;;;5.30;;
81298;SDS011;70766;53.170;18.160;2023-06-26T01:21:27;9.40;;;4.50;;
81298;SDS011;70766;53.170;18.160;2023-06-26T01:24:12;9.80;;;4.90;;
81298;SDS011;70766;53.170;18.160;2023-06-26T01:26:55;8.70;;;5.00;;
81298;SDS011;70766;53.170;18.160;2023-06-26T01:29:26;9.40;;;4.80;;
81298;SDS011;70766;53.170;18.160;2023-06-26T01:31:57;10.10;;;5.00;;
81298;SDS011;70766;53.170;18.160;2023-06-26T01:34:28;8.00;;;4.40;;
81298;SDS011;70766;53.170;18.160;2023-06-26T01:36:57;9.00;;;4.90;;
81298;SDS011;70766;53.170;18.160;2023-06-26T01:39:26;8.40;;;5.00;;
81298;SDS011;70766;53.170;18.160;2023-06-26T01:41:54;9.50;;;5.00;;
81298;SDS011;70766;53.170;18.160;2023-06-26T01:44:29;8.60;;;4.90;;
81298;SDS011;70766;53.170;18.160;2023-06-26T01:47:01;9.00;;;4.50;;
81298;SDS011;70766;53.170;18.160;2023-06-26T01:49:46;10.20;;;4.60;;
81298;SDS011;70766;53.170;18.160;2023-06-26T01:52:22;9.50;;;4.80;;
81298;SDS011;70766;53.170;18.160;2023-06-26T01:55:03;9.10;;;5.70;;
81298;SDS011;70766;53.170;18.160;2023-06-26T01:57:37;10.40;;;5.40;;
81298;SDS011;70766;53.170;18.160;2023-06-26T02:00:07;9.20;;;4.70;;
81298;SDS011;70766;53.170;18.160;2023-06-26T02:02:41;8.80;;;4.90;;
81298;SDS011;70766;53.170;18.160;2023-06-26T02:05:13;9.00;;;4.60;;
81298;SDS011;70766;53.170;18.160;2023-06-26T02:07:43;9.10;;;4.90;;
81298;SDS011;70766;53.170;18.160;2023-06-26T02:10:11;10.50;;;5.60;;
81298;SDS011;70766;53.170;18.160;2023-06-26T02:12:40;11.20;;;5.80;;
81298;SDS011;70766;53.170;18.160;2023-06-26T02:15:09;8.70;;;4.90;;
81298;SDS011;70766;53.170;18.160;2023-06-26T02:17:40;9.30;;;4.40;;
81298;SDS011;70766;53.170;18.160;2023-06-26T02:20:08;9.60;;;5.50;;
81298;SDS011;70766;53.170;18.160;2023-06-26T02:22:38;9.00;;;5.20;;
81298;SDS011;70766;53.170;18.160;2023-06-26T02:25:09;10.30;;;5.10;;
81298;SDS011;70766;53.170;18.160;2023-06-26T02:27:38;9.80;;;5.60;;
81298;SDS011;70766;53.170;18.160;2023-06-26T02:30:07;9.60;;;5.00;;
81298;SDS011;70766;53.170;18.160;2023-06-26T02:32:37;9.20;;;4.80;;
81298;SDS011;70766;53.170;18.160;2023-06-26T02:35:11;10.20;;;5.00;;
81298;SDS011;70766;53.170;18.160;2023-06-26T02:37:42;11.00;;;5.50;;
81298;SDS011;70766;53.170;18.160;2023-06-26T02:40:10;10.00;;;5.50;;
81298;SDS011;70766;53.170;18.160;2023-06-26T02:42:39;11.20;;;5.80;;
81298;SDS011;70766;53.170;18.160;2023-06-26T02:45:07;9.20;;;5.20;;
81298;SDS011;70766;53.170;18.160;2023-06-26T02:47:36;9.00;;;5.40;;
81298;SDS011;70766;53.170;18.160;2023-06-26T02:50:09;10.20;;;5.80;;
81298;SDS011;70766;53.170;18.160;2023-06-26T02:52:56;9.90;;;5.40;;
81298;SDS011;70766;53.170;18.160;2023-06-26T02:55:25;11.10;;;5.70;;
81298;SDS011;70766;53.170;18.160;2023-06-26T02:57:53;10.90;;;5.60;;
81298;SDS011;70766;53.170;18.160;2023-06-26T03:00:22;10.40;;;5.80;;
81298;SDS011;70766;53.170;18.160;2023-06-26T03:02:52;9.40;;;5.40;;
81298;SDS011;70766;53.170;18.160;2023-06-26T03:05:20;10.90;;;5.30;;
81298;SDS011;70766;53.170;18.160;2023-06-26T03:07:49;9.30;;;5.20;;
81298;SDS011;70766;53.170;18.160;2023-06-26T03:10:17;10.80;;;5.50;;
81298;SDS011;70766;53.170;18.160;2023-06-26T03:12:45;12.40;;;6.10;;
81298;SDS011;70766;53.170;18.160;2023-06-26T03:15:13;14.40;;;5.30;;
81298;SDS011;70766;53.170;18.160;2023-06-26T03:17:42;10.60;;;5.50;;
81298;SDS011;70766;53.170;18.160;2023-06-26T03:20:13;11.30;;;5.70;;
81298;SDS011;70766;53.170;18.160;2023-06-26T03:22:50;8.90;;;5.10;;
81298;SDS011;70766;53.170;18.160;2023-06-26T03:25:19;10.90;;;5.80;;
81298;SDS011;70766;53.170;18.160;2023-06-26T03:27:48;11.20;;;5.70;;
81298;SDS011;70766;53.170;18.160;2023-06-26T03:30:16;10.50;;;5.60;;
81298;SDS011;70766;53.170;18.160;2023-06-26T03:32:46;12.70;;;5.90;;
81298;SDS011;70766;53.170;18.160;2023-06-26T03:35:14;10.90;;;4.80;;
81298;SDS011;70766;53.170;18.160;2023-06-26T03:37:42;11.40;;;6.00;;
81298;SDS011;70766;53.170;18.160;2023-06-26T03:40:11;10.90;;;5.80;;
81298;SDS011;70766;53.170;18.160;2023-06-26T03:42:39;10.50;;;6.10;;
81298;SDS011;70766;53.170;18.160;2023-06-26T03:45:07;11.30;;;5.60;;
81298;SDS011;70766;53.170;18.160;2023-06-26T03:47:36;11.20;;;5.90;;
81298;SDS011;70766;53.170;18.160;2023-06-26T03:50:06;10.10;;;5.10;;
81298;SDS011;70766;53.170;18.160;2023-06-26T03:52:35;11.90;;;5.90;;
81298;SDS011;70766;53.170;18.160;2023-06-26T03:55:03;12.40;;;6.10;;
81298;SDS011;70766;53.170;18.160;2023-06-26T03:57:31;12.60;;;7.10;;
81298;SDS011;70766;53.170;18.160;2023-06-26T04:00:00;11.60;;;6.00;;
81298;SDS011;70766;53.170;18.160;2023-06-26T04:02:28;11.60;;;6.80;;
81298;SDS011;70766;53.170;18.160;2023-06-26T04:04:57;12.90;;;7.40;;
81298;SDS011;70766;53.170;18.160;2023-06-26T04:07:25;14.50;;;7.40;;
81298;SDS011;70766;53.170;18.160;2023-06-26T04:09:53;10.00;;;6.30;;
81298;SDS011;70766;53.170;18.160;2023-06-26T04:12:21;13.10;;;7.70;;
81298;SDS011;70766;53.170;18.160;2023-06-26T04:14:49;14.40;;;7.30;;
81298;SDS011;70766;53.170;18.160;2023-06-26T04:17:18;13.60;;;7.40;;
81298;SDS011;70766;53.170;18.160;2023-06-26T04:19:46;11.10;;;7.10;;
81298;SDS011;70766;53.170;18.160;2023-06-26T04:22:14;12.60;;;6.90;;
81298;SDS011;70766;53.170;18.160;2023-06-26T04:24:42;9.20;;;6.30;;
81298;SDS011;70766;53.170;18.160;2023-06-26T04:27:11;11.40;;;7.50;;
81298;SDS011;70766;53.170;18.160;2023-06-26T04:29:44;10.10;;;6.30;;
81298;SDS011;70766;53.170;18.160;2023-06-26T04:32:12;12.30;;;7.30;;
81298;SDS011;70766;53.170;18.160;2023-06-26T04:34:40;10.10;;;7.60;;
81298;SDS011;70766;53.170;18.160;2023-06-26T04:37:11;11.70;;;7.50;;
81298;SDS011;70766;53.170;18.160;2023-06-26T04:39:44;8.10;;;5.80;;
81298;SDS011;70766;53.170;18.160;2023-06-26T04:42:12;13.20;;;8.30;;
81298;SDS011;70766;53.170;18.160;2023-06-26T04:44:40;8.00;;;6.50;;
81298;SDS011;70766;53.170;18.160;2023-06-26T04:47:09;9.60;;;7.00;;
81298;SDS011;70766;53.170;18.160;2023-06-26T04:49:37;9.50;;;7.40;;
81298;SDS011;70766;53.170;18.160;2023-06-26T04:52:06;12.00;;;8.90;;
81298;SDS011;70766;53.170;18.160;2023-06-26T04:54:34;9.20;;;7.50;;
81298;SDS011;70766;53.170;18.160;2023-06-26T04:57:02;10.80;;;7.20;;
81298;SDS011;70766;53.170;18.160;2023-06-26T04:59:31;10.00;;;7.80;;
81298;SDS011;70766;53.170;18.160;2023-06-26T05:01:59;11.70;;;7.50;;
81298;SDS011;70766;53.170;18.160;2023-06-26T05:04:28;11.10;;;8.10;;
81298;SDS011;70766;53.170;18.160;2023-06-26T05:06:56;10.40;;;7.50;;
81298;SDS011;70766;53.170;18.160;2023-06-26T05:09:24;10.10;;;7.60;;
81298;SDS011;70766;53.170;18.160;2023-06-26T05:11:52;9.70;;;7.10;;
81298;SDS011;70766;53.170;18.160;2023-06-26T05:14:20;9.40;;;6.30;;
81298;SDS011;70766;53.170;18.160;2023-06-26T05:16:52;9.90;;;6.70;;
81298;SDS011;70766;53.170;18.160;2023-06-26T05:19:20;10.50;;;8.00;;
81298;SDS011;70766;53.170;18.160;2023-06-26T05:21:48;9.70;;;7.90;;
81298;SDS011;70766;53.170;18.160;2023-06-26T05:24:18;11.30;;;7.30;;
81298;SDS011;70766;53.170;18.160;2023-06-26T05:26:50;11.30;;;8.10;;
81298;SDS011;70766;53.170;18.160;2023-06-26T05:29:18;9.90;;;7.60;;
81298;SDS011;70766;53.170;18.160;2023-06-26T05:31:46;10.80;;;8.40;;
81298;SDS011;70766;53.170;18.160;2023-06-26T05:34:16;9.70;;;7.80;;
81298;SDS011;70766;53.170;18.160;2023-06-26T05:36:47;10.90;;;8.20;;
81298;SDS011;70766;53.170;18.160;2023-06-26T05:39:18;9.60;;;7.80;;
81298;SDS011;70766;53.170;18.160;2023-06-26T05:41:47;9.80;;;7.70;;
81298;SDS011;70766;53.170;18.160;2023-06-26T05:44:16;11.30;;;8.30;;
81298;SDS011;70766;53.170;18.160;2023-06-26T05:46:45;10.60;;;7.70;;
81298;SDS011;70766;53.170;18.160;2023-06-26T05:49:14;11.10;;;8.50;;
81298;SDS011;70766;53.170;18.160;2023-06-26T05:51:43;11.10;;;7.30;;
81298;SDS011;70766;53.170;18.160;2023-06-26T05:54:12;10.20;;;8.30;;
81298;SDS011;70766;53.170;18.160;2023-06-26T05:56:41;9.10;;;6.30;;
81298;SDS011;70766;53.170;18.160;2023-06-26T05:59:10;10.90;;;7.60;;
81298;SDS011;70766;53.170;18.160;2023-06-26T06:01:39;9.20;;;6.80;;
81298;SDS011;70766;53.170;18.160;2023-06-26T06:04:08;8.20;;;6.90;;
81298;SDS011;70766;53.170;18.160;2023-06-26T06:06:36;9.70;;;7.00;;
81298;SDS011;70766;53.170;18.160;2023-06-26T06:09:04;9.20;;;7.70;;
81298;SDS011;70766;53.170;18.160;2023-06-26T06:11:32;10.60;;;8.70;;
81298;SDS011;70766;53.170;18.160;2023-06-26T06:14:01;10.20;;;8.90;;
81298;SDS011;70766;53.170;18.160;2023-06-26T06:16:29;11.50;;;8.00;;
81298;SDS011;70766;53.170;18.160;2023-06-26T06:18:57;10.60;;;8.20;;
81298;SDS011;70766;53.170;18.160;2023-06-26T06:21:25;10.50;;;7.90;;
81298;SDS011;70766;53.170;18.160;2023-06-26T06:23:54;8.60;;;7.00;;
81298;SDS011;70766;53.170;18.160;2023-06-26T06:26:22;9.20;;;7.10;;
81298;SDS011;70766;53.170;18.160;2023-06-26T06:28:50;10.10;;;7.60;;
81298;SDS011;70766;53.170;18.160;2023-06-26T06:31:18;10.20;;;7.20;;
81298;SDS011;70766;53.170;18.160;2023-06-26T06:33:47;8.10;;;6.30;;
81298;SDS011;70766;53.170;18.160;2023-06-26T06:36:15;9.50;;;6.40;;
81298;SDS011;70766;53.170;18.160;2023-06-26T06:38:43;12.90;;;8.20;;
81298;SDS011;70766;53.170;18.160;2023-06-26T06:41:12;9.50;;;7.30;;
81298;SDS011;70766;53.170;18.160;2023-06-26T06:43:40;9.80;;;7.30;;
81298;SDS011;70766;53.170;18.160;2023-06-26T06:46:09;9.80;;;7.90;;
81298;SDS011;70766;53.170;18.160;2023-06-26T06:48:37;9.70;;;7.10;;
81298;SDS011;70766;53.170;18.160;2023-06-26T06:51:05;8.90;;;7.10;;
81298;SDS011;70766;53.170;18.160;2023-06-26T06:53:36;10.30;;;7.60;;
81298;SDS011;70766;53.170;18.160;2023-06-26T06:56:04;9.60;;;6.90;;
81298;SDS011;70766;53.170;18.160;2023-06-26T06:58:32;10.40;;;7.60;;
81298;SDS011;70766;53.170;18.160;2023-06-26T07:01:01;8.80;;;6.60;;
81298;SDS011;70766;53.170;18.160;2023-06-26T07:03:30;7.40;;;5.30;;
81298;SDS011;70766;53.170;18.160;2023-06-26T07:05:59;8.20;;;6.60;;
81298;SDS011;70766;53.170;18.160;2023-06-26T07:08:27;9.40;;;7.60;;
81298;SDS011;70766;53.170;18.160;2023-06-26T07:10:56;9.70;;;7.50;;
81298;SDS011;70766;53.170;18.160;2023-06-26T07:13:27;9.20;;;6.40;;
81298;SDS011;70766;53.170;18.160;2023-06-26T07:15:58;8.80;;;6.90;;
81298;SDS011;70766;53.170;18.160;2023-06-26T07:18:28;11.00;;;7.70;;
81298;SDS011;70766;53.170;18.160;2023-06-26T07:20:56;7.40;;;5.90;;
81298;SDS011;70766;53.170;18.160;2023-06-26T07:23:25;8.70;;;6.70;;
81298;SDS011;70766;53.170;18.160;2023-06-26T07:25:55;9.70;;;6.10;;
81298;SDS011;70766;53.170;18.160;2023-06-26T07:28:24;8.90;;;6.80;;
81298;SDS011;70766;53.170;18.160;2023-06-26T07:30:53;8.40;;;6.80;;
81298;SDS011;70766;53.170;18.160;2023-06-26T07:33:22;10.80;;;7.00;;
81298;SDS011;70766;53.170;18.160;2023-06-26T07:35:50;7.60;;;6.50;;
81298;SDS011;70766;53.170;18.160;2023-06-26T07:38:18;8.50;;;6.40;;
81298;SDS011;70766;53.170;18.160;2023-06-26T07:40:46;8.10;;;5.90;;
81298;SDS011;70766;53.170;18.160;2023-06-26T07:43:14;8.80;;;6.00;;
81298;SDS011;70766;53.170;18.160;2023-06-26T07:45:43;9.30;;;5.10;;
81298;SDS011;70766;53.170;18.160;2023-06-26T07:48:12;7.70;;;5.10;;
81298;SDS011;70766;53.170;18.160;2023-06-26T07:50:40;5.70;;;5.10;;
81298;SDS011;70766;53.170;18.160;2023-06-26T07:53:08;7.10;;;5.20;;
81298;SDS011;70766;53.170;18.160;2023-06-26T07:55:37;6.20;;;5.10;;
81298;SDS011;70766;53.170;18.160;2023-06-26T07:58:05;5.80;;;3.70;;
81298;SDS011;70766;53.170;18.160;2023-06-26T08:00:33;7.20;;;4.80;;
81298;SDS011;70766;53.170;18.160;2023-06-26T08:03:01;8.70;;;5.00;;
81298;SDS011;70766;53.170;18.160;2023-06-26T08:05:30;6.40;;;4.80;;
81298;SDS011;70766;53.170;18.160;2023-06-26T08:07:58;5.70;;;4.00;;
81298;SDS011;70766;53.170;18.160;2023-06-26T08:10:30;6.30;;;4.80;;
81298;SDS011;70766;53.170;18.160;2023-06-26T08:12:58;8.70;;;4.10;;
81298;SDS011;70766;53.170;18.160;2023-06-26T08:15:26;5.50;;;3.50;;
81298;SDS011;70766;53.170;18.160;2023-06-26T08:17:54;6.00;;;3.90;;
81298;SDS011;70766;53.170;18.160;2023-06-26T08:20:22;7.60;;;4.40;;
81298;SDS011;70766;53.170;18.160;2023-06-26T08:22:50;8.00;;;4.70;;
81298;SDS011;70766;53.170;18.160;2023-06-26T08:25:20;8.30;;;4.80;;
81298;SDS011;70766;53.170;18.160;2023-06-26T08:27:49;7.80;;;4.60;;
81298;SDS011;70766;53.170;18.160;2023-06-26T08:30:20;7.10;;;4.70;;
81298;SDS011;70766;53.170;18.160;2023-06-26T08:32:49;4.70;;;3.40;;
81298;SDS011;70766;53.170;18.160;2023-06-26T08:35:19;9.60;;;5.00;;
81298;SDS011;70766;53.170;18.160;2023-06-26T08:37:47;6.10;;;4.30;;
81298;SDS011;70766;53.170;18.160;2023-06-26T08:40:16;8.40;;;4.60;;
81298;SDS011;70766;53.170;18.160;2023-06-26T08:42:49;8.70;;;5.00;;
81298;SDS011;70766;53.170;18.160;2023-06-26T08:45:20;6.60;;;4.60;;
81298;SDS011;70766;53.170;18.160;2023-06-26T08:47:51;6.10;;;4.90;;
81298;SDS011;70766;53.170;18.160;2023-06-26T08:50:22;7.30;;;4.80;;
81298;SDS011;70766;53.170;18.160;2023-06-26T08:53:04;5.90;;;4.20;;
81298;SDS011;70766;53.170;18.160;2023-06-26T08:55:35;6.90;;;3.90;;
81298;SDS011;70766;53.170;18.160;2023-06-26T08:58:06;6.00;;;3.60;;
81298;SDS011;70766;53.170;18.160;2023-06-26T09:00:34;4.50;;;3.00;;
81298;SDS011;70766;53.170;18.160;2023-06-26T09:03:03;7.30;;;4.70;;
81298;SDS011;70766;53.170;18.160;2023-06-26T09:05:32;7.50;;;4.30;;
81298;SDS011;70766;53.170;18.160;2023-06-26T09:08:00;6.30;;;4.90;;
81298;SDS011;70766;53.170;18.160;2023-06-26T09:10:29;6.20;;;4.90;;
81298;SDS011;70766;53.170;18.160;2023-06-26T09:12:57;6.60;;;4.30;;
81298;SDS011;70766;53.170;18.160;2023-06-26T09:15:26;6.10;;;4.60;;
81298;SDS011;70766;53.170;18.160;2023-06-26T09:17:57;5.50;;;4.10;;
81298;SDS011;70766;53.170;18.160;2023-06-26T09:20:27;7.20;;;4.60;;
81298;SDS011;70766;53.170;18.160;2023-06-26T09:22:57;6.10;;;4.50;;
81298;SDS011;70766;53.170;18.160;2023-06-26T09:25:25;6.10;;;4.70;;
81298;SDS011;70766;53.170;18.160;2023-06-26T09:27:56;6.70;;;4.70;;
81298;SDS011;70766;53.170;18.160;2023-06-26T09:30:24;5.60;;;4.30;;
81298;SDS011;70766;53.170;18.160;2023-06-26T09:32:53;6.00;;;4.70;;
81298;SDS011;70766;53.170;18.160;2023-06-26T09:35:22;5.20;;;3.90;;
81298;SDS011;70766;53.170;18.160;2023-06-26T09:37:52;6.90;;;4.40;;
81298;SDS011;70766;53.170;18.160;2023-06-26T09:40:21;6.40;;;4.50;;
81298;SDS011;70766;53.170;18.160;2023-06-26T09:42:49;5.60;;;4.30;;
81298;SDS011;70766;53.170;18.160;2023-06-26T09:45:18;6.30;;;4.10;;
81298;SDS011;70766;53.170;18.160;2023-06-26T09:47:47;7.80;;;4.90;;
81298;SDS011;70766;53.170;18.160;2023-06-26T09:50:22;5.00;;;4.00;;
81298;SDS011;70766;53.170;18.160;2023-06-26T09:52:51;5.70;;;4.80;;
81298;SDS011;70766;53.170;18.160;2023-06-26T09:55:20;7.30;;;4.80;;
81298;SDS011;70766;53.170;18.160;2023-06-26T09:57:51;6.60;;;4.90;;
81298;SDS011;70766;53.170;18.160;2023-06-26T10:00:24;6.30;;;4.60;;
81298;SDS011;70766;53.170;18.160;2023-06-26T10:02:52;5.50;;;4.40;;
81298;SDS011;70766;53.170;18.160;2023-06-26T10:05:20;5.30;;;3.00;;
81298;SDS011;70766;53.170;18.160;2023-06-26T10:07:49;7.50;;;5.10;;
81298;SDS011;70766;53.170;18.160;2023-06-26T10:10:18;5.70;;;4.20;;
81298;SDS011;70766;53.170;18.160;2023-06-26T10:12:48;6.90;;;4.90;;
81298;SDS011;70766;53.170;18.160;2023-06-26T10:15:19;5.20;;;4.40;;
81298;SDS011;70766;53.170;18.160;2023-06-26T10:17:49;6.30;;;4.00;;
81298;SDS011;70766;53.170;18.160;2023-06-26T10:20:18;10.80;;;6.00;;
81298;SDS011;70766;53.170;18.160;2023-06-26T10:22:47;8.00;;;4.30;;
81298;SDS011;70766;53.170;18.160;2023-06-26T10:25:19;6.00;;;3.60;;
81298;SDS011;70766;53.170;18.160;2023-06-26T10:27:49;4.90;;;4.30;;
81298;SDS011;70766;53.170;18.160;2023-06-26T10:30:23;6.20;;;4.50;;
81298;SDS011;70766;53.170;18.160;2023-06-26T10:32:55;6.90;;;3.90;;
81298;SDS011;70766;53.170;18.160;2023-06-26T10:35:24;5.80;;;4.20;;
81298;SDS011;70766;53.170;18.160;2023-06-26T10:38:00;8.10;;;4.60;;
81298;SDS011;70766;53.170;18.160;2023-06-26T10:40:43;5.30;;;4.50;;
81298;SDS011;70766;53.170;18.160;2023-06-26T10:43:20;6.20;;;4.80;;
81298;SDS011;70766;53.170;18.160;2023-06-26T10:45:50;5.70;;;4.00;;
81298;SDS011;70766;53.170;18.160;2023-06-26T10:48:23;6.20;;;4.50;;
81298;SDS011;70766;53.170;18.160;2023-06-26T10:50:57;5.80;;;4.30;;
81298;SDS011;70766;53.170;18.160;2023-06-26T10:53:26;5.60;;;3.80;;
81298;SDS011;70766;53.170;18.160;2023-06-26T10:55:59;6.20;;;3.80;;
81298;SDS011;70766;53.170;18.160;2023-06-26T11:03:47;6.00;;;3.80;;
81298;SDS011;70766;53.170;18.160;2023-06-26T11:06:24;5.70;;;3.70;;
81298;SDS011;70766;53.170;18.160;2023-06-26T11:08:54;7.20;;;4.20;;
81298;SDS011;70766;53.170;18.160;2023-06-26T11:14:19;4.90;;;4.10;;
81298;SDS011;70766;53.170;18.160;2023-06-26T11:16:52;5.10;;;4.00;;
81298;SDS011;70766;53.170;18.160;2023-06-26T11:19:20;7.50;;;4.40;;
81298;SDS011;70766;53.170;18.160;2023-06-26T11:21:48;5.80;;;4.70;;
81298;SDS011;70766;53.170;18.160;2023-06-26T11:24:18;5.50;;;4.30;;
81298;SDS011;70766;53.170;18.160;2023-06-26T11:26:47;4.70;;;3.30;;
81298;SDS011;70766;53.170;18.160;2023-06-26T11:29:15;5.00;;;4.10;;
81298;SDS011;70766;53.170;18.160;2023-06-26T11:31:43;5.90;;;3.90;;
81298;SDS011;70766;53.170;18.160;2023-06-26T11:34:12;6.70;;;4.50;;
81298;SDS011;70766;53.170;18.160;2023-06-26T11:36:42;6.00;;;4.80;;
81298;SDS011;70766;53.170;18.160;2023-06-26T11:39:13;6.20;;;4.30;;
81298;SDS011;70766;53.170;18.160;2023-06-26T11:41:42;7.30;;;3.50;;
81298;SDS011;70766;53.170;18.160;2023-06-26T11:44:13;6.00;;;4.00;;
81298;SDS011;70766;53.170;18.160;2023-06-26T11:46:50;5.90;;;4.10;;
81298;SDS011;70766;53.170;18.160;2023-06-26T11:49:20;6.80;;;4.60;;
81298;SDS011;70766;53.170;18.160;2023-06-26T11:51:51;5.00;;;4.30;;
81298;SDS011;70766;53.170;18.160;2023-06-26T11:54:26;4.80;;;3.80;;
81298;SDS011;70766;53.170;18.160;2023-06-26T11:56:58;6.70;;;4.60;;
81298;SDS011;70766;53.170;18.160;2023-06-26T12:02:07;5.00;;;3.80;;
81298;SDS011;70766;53.170;18.160;2023-06-26T12:04:43;6.40;;;4.70;;
81298;SDS011;70766;53.170;18.160;2023-06-26T12:07:14;6.10;;;3.50;;
81298;SDS011;70766;53.170;18.160;2023-06-26T12:09:45;4.80;;;3.50;;
81298;SDS011;70766;53.170;18.160;2023-06-26T12:12:16;5.60;;;3.90;;
81298;SDS011;70766;53.170;18.160;2023-06-26T12:14:45;5.80;;;3.50;;
81298;SDS011;70766;53.170;18.160;2023-06-26T12:17:14;5.50;;;3.20;;
81298;SDS011;70766;53.170;18.160;2023-06-26T12:19:43;6.90;;;4.50;;
81298;SDS011;70766;53.170;18.160;2023-06-26T12:22:16;5.10;;;3.40;;
81298;SDS011;70766;53.170;18.160;2023-06-26T12:24:46;5.60;;;3.50;;
81298;SDS011;70766;53.170;18.160;2023-06-26T12:27:15;5.40;;;4.10;;
81298;SDS011;70766;53.170;18.160;2023-06-26T12:29:53;6.80;;;4.40;;
81298;SDS011;70766;53.170;18.160;2023-06-26T12:32:23;6.40;;;4.30;;
81298;SDS011;70766;53.170;18.160;2023-06-26T12:34:56;9.20;;;4.90;;
81298;SDS011;70766;53.170;18.160;2023-06-26T12:37:24;7.00;;;4.40;;
81298;SDS011;70766;53.170;18.160;2023-06-26T12:39:53;4.90;;;3.50;;
81298;SDS011;70766;53.170;18.160;2023-06-26T12:42:25;11.60;;;4.20;;
81298;SDS011;70766;53.170;18.160;2023-06-26T12:44:55;8.40;;;4.40;;
81298;SDS011;70766;53.170;18.160;2023-06-26T12:47:27;6.40;;;4.40;;
81298;SDS011;70766;53.170;18.160;2023-06-26T12:49:56;7.40;;;4.50;;
81298;SDS011;70766;53.170;18.160;2023-06-26T12:52:25;7.50;;;4.90;;
81298;SDS011;70766;53.170;18.160;2023-06-26T12:54:59;7.70;;;4.90;;
81298;SDS011;70766;53.170;18.160;2023-06-26T12:57:30;8.40;;;4.90;;
81298;SDS011;70766;53.170;18.160;2023-06-26T13:00:05;7.50;;;5.20;;
81298;SDS011;70766;53.170;18.160;2023-06-26T13:02:43;8.00;;;5.30;;
81298;SDS011;70766;53.170;18.160;2023-06-26T13:05:12;9.30;;;5.40;;
81298;SDS011;70766;53.170;18.160;2023-06-26T13:07:41;9.90;;;4.90;;
81298;SDS011;70766;53.170;18.160;2023-06-26T13:10:09;6.80;;;5.10;;
81298;SDS011;70766;53.170;18.160;2023-06-26T13:12:39;8.30;;;5.30;;
81298;SDS011;70766;53.170;18.160;2023-06-26T13:15:08;9.10;;;5.40;;
81298;SDS011;70766;53.170;18.160;2023-06-26T13:17:36;8.30;;;5.40;;
81298;SDS011;70766;53.170;18.160;2023-06-26T13:20:05;6.80;;;4.70;;
81298;SDS011;70766;53.170;18.160;2023-06-26T13:22:33;7.30;;;4.70;;
81298;SDS011;70766;53.170;18.160;2023-06-26T13:25:02;9.00;;;5.60;;
81298;SDS011;70766;53.170;18.160;2023-06-26T13:27:30;7.30;;;5.50;;
81298;SDS011;70766;53.170;18.160;2023-06-26T13:29:58;5.80;;;4.90;;
81298;SDS011;70766;53.170;18.160;2023-06-26T13:32:27;6.80;;;5.00;;
81298;SDS011;70766;53.170;18.160;2023-06-26T13:34:55;8.10;;;5.40;;
81298;SDS011;70766;53.170;18.160;2023-06-26T13:37:23;7.00;;;5.60;;
81298;SDS011;70766;53.170;18.160;2023-06-26T13:39:51;7.50;;;5.50;;
81298;SDS011;70766;53.170;18.160;2023-06-26T13:42:20;7.90;;;5.30;;
81298;SDS011;70766;53.170;18.160;2023-06-26T13:44:49;6.20;;;4.10;;
81298;SDS011;70766;53.170;18.160;2023-06-26T13:47:29;7.10;;;4.80;;
81298;SDS011;70766;53.170;18.160;2023-06-26T13:49:58;6.90;;;4.60;;
81298;SDS011;70766;53.170;18.160;2023-06-26T13:52:26;8.60;;;4.60;;
81298;SDS011;70766;53.170;18.160;2023-06-26T13:54:54;7.20;;;5.00;;
81298;SDS011;70766;53.170;18.160;2023-06-26T13:57:22;6.10;;;4.50;;
81298;SDS011;70766;53.170;18.160;2023-06-26T13:59:51;6.60;;;4.90;;
81298;SDS011;70766;53.170;18.160;2023-06-26T14:02:19;6.60;;;4.80;;
81298;SDS011;70766;53.170;18.160;2023-06-26T14:04:48;8.90;;;4.70;;
81298;SDS011;70766;53.170;18.160;2023-06-26T14:07:16;5.20;;;4.50;;
81298;SDS011;70766;53.170;18.160;2023-06-26T14:09:45;10.80;;;5.00;;
81298;SDS011;70766;53.170;18.160;2023-06-26T14:12:16;6.60;;;4.70;;
81298;SDS011;70766;53.170;18.160;2023-06-26T14:14:45;6.70;;;4.60;;
81298;SDS011;70766;53.170;18.160;2023-06-26T14:17:16;6.60;;;4.70;;
81298;SDS011;70766;53.170;18.160;2023-06-26T14:19:44;6.10;;;4.40;;
81298;SDS011;70766;53.170;18.160;2023-06-26T14:22:14;8.60;;;5.40;;
81298;SDS011;70766;53.170;18.160;2023-06-26T14:24:45;6.00;;;4.60;;
81298;SDS011;70766;53.170;18.160;2023-06-26T14:27:13;6.20;;;4.10;;
81298;SDS011;70766;53.170;18.160;2023-06-26T14:29:41;5.90;;;4.60;;
81298;SDS011;70766;53.170;18.160;2023-06-26T14:32:10;6.20;;;4.80;;
81298;SDS011;70766;53.170;18.160;2023-06-26T14:34:39;8.90;;;4.90;;
81298;SDS011;70766;53.170;18.160;2023-06-26T14:37:08;6.10;;;4.10;;
81298;SDS011;70766;53.170;18.160;2023-06-26T14:39:37;9.10;;;4.80;;
81298;SDS011;70766;53.170;18.160;2023-06-26T14:42:07;6.60;;;4.60;;
81298;SDS011;70766;53.170;18.160;2023-06-26T14:44:35;7.00;;;4.30;;
81298;SDS011;70766;53.170;18.160;2023-06-26T14:47:04;6.40;;;4.70;;
81298;SDS011;70766;53.170;18.160;2023-06-26T14:49:33;8.50;;;4.90;;
81298;SDS011;70766;53.170;18.160;2023-06-26T14:52:02;6.00;;;4.30;;
81298;SDS011;70766;53.170;18.160;2023-06-26T14:54:33;7.30;;;4.70;;
81298;SDS011;70766;53.170;18.160;2023-06-26T14:57:04;7.20;;;5.00;;